createdAt,value
2019-03-22T08:47:48.384Z,15.40
2019-03-22T08:50:18.271Z,13.90
2019-03-22T08:52:47.797Z,14.70
2019-03-22T08:55:17.641Z,14.70
2019-03-22T08:57:47.297Z,13.60
2019-03-22T09:00:17.610Z,12.50
2019-03-22T09:05:17.723Z,13.63
2019-03-22T09:10:16.473Z,13.25
2019-03-22T09:12:46.124Z,11.00
2019-03-22T09:15:16.042Z,10.33
2019-03-22T09:17:45.763Z,12.70
2019-03-22T09:27:41.974Z,7.43
2019-03-22T09:30:14.228Z,8.40
2019-03-22T09:32:44.050Z,7.27
2019-03-22T09:35:14.044Z,7.57
2019-03-22T09:37:43.902Z,7.10
2019-03-22T09:40:14.064Z,8.20
2019-03-22T09:45:14.294Z,8.10
2019-03-22T09:47:44.326Z,9.30
2019-03-22T09:50:14.664Z,8.17
2019-03-22T09:57:43.801Z,7.13
2019-03-22T10:00:27.782Z,6.67
2019-03-22T10:02:57.641Z,6.60
2019-03-22T10:05:27.285Z,5.83
2019-03-22T10:07:57.058Z,6.20
2019-03-22T10:10:26.847Z,9.40
2019-03-22T10:12:56.659Z,5.73
2019-03-22T10:15:26.470Z,6.17
2019-03-22T10:18:15.521Z,6.50
2019-03-22T10:20:45.164Z,7.20
2019-03-22T10:23:15.026Z,7.33
2019-03-22T10:25:44.703Z,6.73
2019-03-22T10:28:14.613Z,5.30
2019-03-22T10:30:44.632Z,6.00
2019-03-22T10:33:22.453Z,5.13
2019-03-22T10:35:46.303Z,8.63
2019-03-22T10:38:16.756Z,7.97
2019-03-22T10:40:47.476Z,8.63
2019-03-22T10:43:17.219Z,8.43
2019-03-22T10:45:47.093Z,8.50
2019-03-22T10:48:16.942Z,8.37
2019-03-22T10:50:46.942Z,9.30
2019-03-22T10:53:17.094Z,7.77
2019-03-22T10:55:47.035Z,7.53
2019-03-22T10:58:21.294Z,7.13
2019-03-22T11:00:48.516Z,8.20
2019-03-22T11:03:18.282Z,7.53
2019-03-22T11:05:47.981Z,8.43
2019-03-22T11:08:17.666Z,7.00
2019-03-22T11:10:47.344Z,6.53
2019-03-22T11:13:17.130Z,6.93
2019-03-22T11:15:48.661Z,6.20
2019-03-22T11:18:18.771Z,6.67
2019-03-22T11:20:48.671Z,7.40
2019-03-22T11:23:18.700Z,7.13
2019-03-22T11:25:48.517Z,6.50
2019-03-22T11:28:18.179Z,6.40
2019-03-22T11:33:16.928Z,7.30
2019-03-22T11:35:46.836Z,6.30
2019-03-22T11:38:16.534Z,6.07
2019-03-22T11:40:47.022Z,6.53
2019-03-22T11:43:17.033Z,6.10
2019-03-22T11:45:46.842Z,5.83
2019-03-22T11:48:20.999Z,6.50
2019-03-22T11:50:50.651Z,5.73
2019-03-22T11:53:20.530Z,6.57
2019-03-22T11:55:50.676Z,5.40
2019-03-22T11:58:20.655Z,6.03
2019-03-22T12:00:50.511Z,6.67
2019-03-22T12:03:20.543Z,5.83
2019-03-22T12:05:53.981Z,5.90
2019-03-22T12:13:23.685Z,5.60
2019-03-22T12:15:53.674Z,5.87
2019-03-22T12:18:23.495Z,5.90
2019-03-22T12:20:53.518Z,6.03
2019-03-22T12:23:23.317Z,5.10
2019-03-22T12:25:53.360Z,6.00
2019-03-22T12:30:52.032Z,5.00
2019-03-22T12:33:21.924Z,5.77
2019-03-22T12:35:51.873Z,4.90
2019-03-22T12:38:21.790Z,5.43
2019-03-22T12:40:51.355Z,5.77
2019-03-22T12:43:21.142Z,5.13
2019-03-22T12:45:50.949Z,5.27
2019-03-22T12:48:20.773Z,4.30
2019-03-22T12:50:50.388Z,4.90
2019-03-22T12:53:20.273Z,4.80
2019-03-22T12:55:50.197Z,5.03
2019-03-22T12:58:19.831Z,4.90
2019-03-22T13:00:49.515Z,5.60
2019-03-22T13:03:19.482Z,4.60
2019-03-22T13:05:49.161Z,11.00
2019-03-22T13:08:19.088Z,5.00
2019-03-22T13:10:49.194Z,4.07
2019-03-22T13:15:48.198Z,2.73
2019-03-22T13:23:15.860Z,6.43
2019-03-22T13:33:31.260Z,6.83
2019-03-22T13:36:00.868Z,6.83
2019-03-22T13:38:31.041Z,6.83
2019-03-22T13:41:01.015Z,6.97
2019-03-22T13:43:31.104Z,8.33
2019-03-22T13:46:00.904Z,8.00
